createdAt,value
2019-02-16T00:00:19.223Z,1.60
2019-02-16T00:02:47.374Z,1.50
2019-02-16T00:05:15.590Z,1.50
2019-02-16T00:07:44.359Z,1.50
2019-02-16T00:10:12.471Z,1.50
2019-02-16T00:12:40.731Z,1.50
2019-02-16T00:15:09.055Z,1.50
2019-02-16T00:17:37.213Z,1.40
2019-02-16T00:20:05.642Z,1.40
2019-02-16T00:22:33.802Z,1.40
2019-02-16T00:25:02.386Z,1.40
2019-02-16T00:27:30.563Z,1.40
2019-02-16T00:29:58.669Z,1.40
2019-02-16T00:32:27.360Z,1.40
2019-02-16T00:34:55.998Z,1.40
2019-02-16T00:37:24.104Z,1.30
2019-02-16T00:39:52.259Z,1.40
2019-02-16T00:42:20.366Z,1.40
2019-02-16T00:44:48.542Z,1.40
2019-02-16T00:47:16.744Z,1.40
2019-02-16T00:49:44.919Z,1.40
2019-02-16T00:52:13.421Z,1.40
2019-02-16T00:54:42.110Z,1.30
2019-02-16T00:57:10.290Z,1.20
2019-02-16T00:59:38.516Z,1.10
2019-02-16T01:02:06.828Z,1.10
2019-02-16T01:04:34.998Z,1.00
2019-02-16T01:07:03.569Z,0.90
2019-02-16T01:09:31.717Z,0.90
2019-02-16T01:11:59.818Z,0.90
2019-02-16T01:14:28.295Z,1.00
2019-02-16T01:16:56.408Z,1.10
2019-02-16T01:19:24.566Z,1.00
2019-02-16T01:21:53.146Z,1.00
2019-02-16T01:24:21.298Z,0.90
2019-02-16T01:26:49.414Z,0.80
2019-02-16T01:29:18.081Z,0.80
2019-02-16T01:31:46.553Z,0.80
2019-02-16T01:34:14.720Z,0.80
2019-02-16T01:36:42.826Z,0.70
2019-02-16T01:39:10.979Z,0.70
2019-02-16T01:41:39.188Z,0.60
2019-02-16T01:44:07.828Z,0.60
2019-02-16T01:46:35.946Z,0.60
2019-02-16T01:49:04.202Z,0.70
2019-02-16T01:51:32.387Z,0.70
2019-02-16T01:54:00.582Z,0.60
2019-02-16T01:56:28.705Z,0.50
2019-02-16T01:58:57.922Z,0.50
2019-02-16T02:01:26.162Z,0.50
2019-02-16T02:03:54.335Z,0.40
2019-02-16T02:06:22.445Z,0.40
2019-02-16T02:08:50.610Z,0.40
2019-02-16T02:11:18.734Z,0.30
2019-02-16T02:13:46.894Z,0.20
2019-02-16T02:16:15.025Z,0.30
2019-02-16T02:18:43.190Z,0.40
2019-02-16T02:21:11.278Z,0.40
2019-02-16T02:23:39.933Z,0.30
2019-02-16T02:26:08.135Z,0.30
2019-02-16T02:28:36.294Z,0.20
2019-02-16T02:31:04.410Z,0.10
2019-02-16T02:33:32.514Z,0.10
2019-02-16T02:36:00.766Z,0.00
2019-02-16T02:38:28.859Z,0.00
2019-02-16T02:40:57.452Z,-0.10
2019-02-16T02:43:25.556Z,-0.10
2019-02-16T02:45:53.718Z,-0.10
2019-02-16T02:48:21.839Z,-0.10
2019-02-16T02:50:50.378Z,-0.10
2019-02-16T02:53:18.536Z,-0.10
2019-02-16T02:55:46.714Z,-0.10
2019-02-16T02:58:14.881Z,-0.10
2019-02-16T03:00:43.494Z,-0.10
2019-02-16T03:03:11.584Z,0.00
2019-02-16T03:05:39.755Z,0.10
2019-02-16T03:08:08.379Z,0.10
2019-02-16T03:10:36.546Z,0.00
2019-02-16T03:13:04.638Z,0.10
2019-02-16T03:15:32.797Z,0.10
2019-02-16T03:18:00.901Z,0.00
2019-02-16T03:20:29.069Z,0.00
2019-02-16T03:23:17.355Z,0.00
2019-02-16T03:25:52.446Z,-0.10
2019-02-16T03:28:33.940Z,-0.20
2019-02-16T03:31:38.559Z,-0.30
2019-02-16T03:34:17.020Z,-0.30
2019-02-16T03:37:14.632Z,-0.30
2019-02-16T03:39:45.213Z,-0.20
2019-02-16T03:42:13.351Z,-0.30
2019-02-16T03:44:41.446Z,-0.20
2019-02-16T03:47:09.603Z,-0.40
2019-02-16T03:49:37.756Z,-0.40
2019-02-16T03:52:13.214Z,-0.50
2019-02-16T03:54:36.038Z,-0.60
2019-02-16T03:57:04.723Z,-0.60
2019-02-16T03:59:33.247Z,-0.60
2019-02-16T04:02:01.499Z,-0.60
2019-02-16T04:04:29.978Z,-0.50
2019-02-16T04:06:58.150Z,-0.50
2019-02-16T04:09:26.273Z,-0.40
2019-02-16T04:11:54.426Z,-0.40
2019-02-16T04:14:22.956Z,-0.30
2019-02-16T04:16:51.222Z,-0.40
2019-02-16T04:19:19.422Z,-0.50
2019-02-16T04:21:47.576Z,-0.50
2019-02-16T04:24:15.667Z,-0.60
2019-02-16T04:26:43.823Z,-0.60
2019-02-16T04:29:11.918Z,-0.50
2019-02-16T04:31:40.529Z,-0.60
2019-02-16T04:34:08.670Z,-0.60
2019-02-16T04:36:36.930Z,-0.60
2019-02-16T04:39:05.791Z,-0.60
2019-02-16T04:41:33.944Z,-0.60
2019-02-16T04:44:02.480Z,-0.70
2019-02-16T04:46:30.656Z,-0.70
2019-02-16T04:48:58.766Z,-0.70
2019-02-16T04:51:26.939Z,-0.80
2019-02-16T04:53:55.878Z,-0.70
2019-02-16T04:56:24.047Z,-0.70
2019-02-16T04:58:52.582Z,-0.60
2019-02-16T05:01:20.911Z,-0.70
2019-02-16T05:03:49.011Z,-0.70
2019-02-16T05:06:17.515Z,-0.80
2019-02-16T05:08:45.608Z,-0.80
2019-02-16T05:11:13.758Z,-0.70
2019-02-16T05:13:41.862Z,-0.70
2019-02-16T05:16:10.010Z,-0.70
2019-02-16T05:18:38.105Z,-0.60
2019-02-16T05:21:06.642Z,-0.60
2019-02-16T05:23:34.775Z,-0.60
2019-02-16T05:26:02.884Z,-0.60
2019-02-16T05:28:31.055Z,-0.60
2019-02-16T05:30:59.615Z,-0.70
2019-02-16T05:33:27.782Z,-0.80
2019-02-16T05:35:56.298Z,-0.90
2019-02-16T05:38:24.467Z,-1.00
2019-02-16T05:40:52.566Z,-1.10
2019-02-16T05:43:20.733Z,-1.00
2019-02-16T05:45:48.827Z,-1.10
2019-02-16T05:48:17.006Z,-1.10
2019-02-16T05:50:45.113Z,-1.20
2019-02-16T05:53:13.284Z,-1.10
2019-02-16T05:55:41.387Z,-1.20
2019-02-16T05:58:09.544Z,-1.10
2019-02-16T06:00:37.699Z,-1.20
2019-02-16T06:03:05.862Z,-1.20
2019-02-16T06:05:33.966Z,-1.30
2019-02-16T06:08:02.126Z,-1.30
2019-02-16T06:10:30.227Z,-1.30
2019-02-16T06:12:58.794Z,-1.40
2019-02-16T06:15:27.450Z,-1.40
2019-02-16T06:17:55.609Z,-1.30
2019-02-16T06:20:23.704Z,-1.40
2019-02-16T06:22:52.252Z,-1.30
2019-02-16T06:25:20.356Z,-1.30
2019-02-16T06:27:48.518Z,-1.40
2019-02-16T06:30:16.751Z,-1.40
2019-02-16T06:32:45.369Z,-1.30
2019-02-16T06:35:38.548Z,-1.30
2019-02-16T06:38:06.724Z,-1.30
2019-02-16T06:40:34.938Z,-1.50
2019-02-16T06:43:03.210Z,-1.40
2019-02-16T06:45:31.413Z,-1.50
2019-02-16T06:47:59.574Z,-1.50
2019-02-16T06:50:36.543Z,-1.50
2019-02-16T06:52:58.086Z,-1.50
2019-02-16T06:55:33.899Z,-1.50
2019-02-16T06:58:02.076Z,-1.40
2019-02-16T07:00:30.731Z,-1.50
2019-02-16T07:02:58.891Z,-1.50
2019-02-16T07:05:26.991Z,-1.40
2019-02-16T07:07:55.142Z,-1.30
2019-02-16T07:10:23.622Z,-1.20
2019-02-16T07:12:51.894Z,-1.30
2019-02-16T07:15:20.004Z,-1.20
2019-02-16T07:17:53.590Z,-1.20
2019-02-16T07:20:23.476Z,-1.20
2019-02-16T07:22:52.627Z,-1.20
2019-02-16T07:25:20.800Z,-1.10
2019-02-16T07:27:49.772Z,-1.00
2019-02-16T07:30:17.874Z,-1.00
2019-02-16T07:32:46.123Z,-1.00
2019-02-16T07:35:14.222Z,-1.00
2019-02-16T07:37:42.383Z,-0.90
2019-02-16T07:40:11.062Z,-0.80
2019-02-16T07:43:07.555Z,-0.70
2019-02-16T07:45:59.764Z,-0.70
2019-02-16T07:48:48.778Z,-0.60
2019-02-16T07:51:35.618Z,-0.50
2019-02-16T07:54:28.654Z,-0.40
2019-02-16T07:57:14.842Z,-0.20
2019-02-16T07:59:49.786Z,-0.10
2019-02-16T08:02:37.726Z,0.10
2019-02-16T08:05:28.234Z,0.20
2019-02-16T08:08:24.705Z,0.30
2019-02-16T08:11:27.148Z,0.50
2019-02-16T08:14:23.558Z,0.70
2019-02-16T08:17:17.349Z,1.10
2019-02-16T08:20:03.486Z,1.50
2019-02-16T08:22:59.706Z,2.00
2019-02-16T08:25:50.191Z,2.30
2019-02-16T08:28:29.437Z,2.80
2019-02-16T08:31:23.574Z,3.10
2019-02-16T08:34:00.516Z,3.40
2019-02-16T08:36:49.312Z,3.80
2019-02-16T08:39:48.969Z,4.10
2019-02-16T08:42:26.649Z,4.50
2019-02-16T08:45:07.175Z,4.80
2019-02-16T08:47:42.522Z,5.00
2019-02-16T08:50:29.915Z,5.30
2019-02-16T08:53:11.541Z,5.50
2019-02-16T08:56:01.900Z,5.70
2019-02-16T08:58:48.374Z,5.80
2019-02-16T09:01:35.892Z,6.00
2019-02-16T09:04:19.810Z,6.10
2019-02-16T09:06:57.673Z,6.30
2019-02-16T09:09:48.509Z,6.40
2019-02-16T09:12:24.214Z,6.50
2019-02-16T09:15:01.962Z,6.70
2019-02-16T09:17:56.717Z,6.80
2019-02-16T09:20:50.780Z,7.00
2019-02-16T09:23:27.981Z,7.10
2019-02-16T09:26:27.699Z,7.20
2019-02-16T09:29:21.675Z,7.30
2019-02-16T09:31:59.426Z,7.40
2019-02-16T09:34:41.370Z,7.50
2019-02-16T09:37:31.303Z,7.70
2019-02-16T09:40:24.786Z,7.80
2019-02-16T09:43:11.151Z,7.90
2019-02-16T09:46:04.327Z,8.10
2019-02-16T09:48:54.673Z,8.20
2019-02-16T09:51:44.818Z,8.30
2019-02-16T09:54:32.286Z,8.50
2019-02-16T09:57:11.261Z,8.60
2019-02-16T09:59:51.977Z,8.80
2019-02-16T10:02:37.546Z,9.00
2019-02-16T10:05:28.142Z,9.10
2019-02-16T10:08:18.585Z,9.30
2019-02-16T10:11:06.054Z,9.50
2019-02-16T10:13:53.630Z,9.60
2019-02-16T10:16:37.514Z,9.80
2019-02-16T10:19:11.814Z,9.90
2019-02-16T10:21:59.295Z,9.90
2019-02-16T10:24:41.345Z,10.10
2019-02-16T10:27:34.944Z,10.30
2019-02-16T10:30:28.498Z,10.40
2019-02-16T10:33:15.974Z,10.40
2019-02-16T10:36:03.632Z,10.60
2019-02-16T10:38:41.269Z,10.80
2019-02-16T10:41:31.693Z,11.00
2019-02-16T10:44:28.326Z,11.10
2019-02-16T10:47:14.414Z,11.30
2019-02-16T10:50:13.911Z,11.50
2019-02-16T10:53:07.058Z,11.80
2019-02-16T10:55:57.942Z,11.90
2019-02-16T10:58:51.405Z,12.10
2019-02-16T11:01:38.997Z,12.50
2019-02-16T11:04:38.128Z,12.70
2019-02-16T11:07:10.297Z,12.90
2019-02-16T11:10:00.849Z,13.20
2019-02-16T11:12:51.234Z,13.50
2019-02-16T11:15:44.875Z,13.80
2019-02-16T11:18:50.592Z,14.10
2019-02-16T11:21:26.414Z,14.20
2019-02-16T11:24:26.080Z,14.50
2019-02-16T11:27:16.464Z,14.80
2019-02-16T11:29:59.802Z,14.90
2019-02-16T11:32:49.954Z,15.10
2019-02-16T11:35:46.607Z,15.20
2019-02-16T11:38:52.696Z,15.40
2019-02-16T11:41:52.198Z,15.50
2019-02-16T11:44:44.157Z,15.80
2019-02-16T11:47:44.258Z,15.80
2019-02-16T11:50:28.387Z,15.90
2019-02-16T11:53:33.859Z,16.00
2019-02-16T11:56:21.367Z,16.10
2019-02-16T11:59:16.441Z,16.20
2019-02-16T12:02:05.447Z,16.30
2019-02-16T12:04:52.951Z,16.40
2019-02-16T12:07:46.325Z,16.40
2019-02-16T12:10:35.324Z,16.50
2019-02-16T12:13:31.936Z,16.60
2019-02-16T12:16:17.722Z,16.70
2019-02-16T12:19:06.589Z,16.70
2019-02-16T12:22:05.989Z,16.80
2019-02-16T12:25:05.389Z,16.80
2019-02-16T12:27:48.288Z,16.90
2019-02-16T12:30:35.751Z,17.00
2019-02-16T12:33:23.270Z,17.10
2019-02-16T12:36:03.685Z,17.10
2019-02-16T12:38:47.274Z,17.20
2019-02-16T12:41:37.548Z,17.30
2019-02-16T12:44:39.993Z,17.40
2019-02-16T12:47:21.946Z,17.40
2019-02-16T12:50:02.602Z,17.50
2019-02-16T12:52:53.006Z,17.60
2019-02-16T12:55:52.658Z,17.60
2019-02-16T12:58:34.894Z,17.70
2019-02-16T13:01:12.799Z,17.70
2019-02-16T13:03:59.229Z,17.80
2019-02-16T13:06:49.363Z,17.80
2019-02-16T13:09:40.390Z,17.80
2019-02-16T13:12:35.301Z,17.80
2019-02-16T13:15:29.267Z,17.90
2019-02-16T13:18:19.624Z,17.90
2019-02-16T13:20:59.423Z,17.90
2019-02-16T13:23:41.469Z,17.90
2019-02-16T13:26:44.038Z,18.00
2019-02-16T13:29:28.302Z,17.90
2019-02-16T13:32:22.329Z,17.80
2019-02-16T13:35:19.242Z,17.60
2019-02-16T13:37:57.534Z,17.50
2019-02-16T13:40:47.935Z,17.30
2019-02-16T13:43:41.286Z,17.30
2019-02-16T13:46:16.338Z,17.20
2019-02-16T13:49:01.680Z,17.00
2019-02-16T13:51:36.190Z,17.00
2019-02-16T13:54:35.612Z,16.90
2019-02-16T13:57:11.950Z,16.80
2019-02-16T13:59:59.833Z,16.80
2019-02-16T14:02:47.455Z,16.80
2019-02-16T14:05:43.853Z,16.90
2019-02-16T14:08:22.648Z,17.00
2019-02-16T14:10:56.530Z,17.00
2019-02-16T14:13:48.619Z,17.10
2019-02-16T14:16:38.257Z,17.20
2019-02-16T14:19:06.434Z,17.20
2019-02-16T14:21:34.536Z,17.30
2019-02-16T14:24:02.718Z,17.40
2019-02-16T14:26:30.874Z,17.40
2019-02-16T14:28:58.985Z,17.40
2019-02-16T14:31:28.649Z,17.40
2019-02-16T14:33:57.280Z,17.40
2019-02-16T14:36:25.845Z,17.40
2019-02-16T14:39:06.674Z,17.30
2019-02-16T14:41:35.322Z,17.30
2019-02-16T14:44:03.436Z,17.20
2019-02-16T14:46:31.637Z,17.10
2019-02-16T14:49:00.113Z,17.10
2019-02-16T14:51:28.846Z,17.00
2019-02-16T14:53:56.969Z,17.00
2019-02-16T14:56:25.558Z,16.90
2019-02-16T14:58:53.657Z,16.90
2019-02-16T15:01:21.843Z,16.90
2019-02-16T15:03:50.020Z,16.80
2019-02-16T15:06:18.274Z,16.80
2019-02-16T15:08:46.386Z,16.80
2019-02-16T15:11:15.140Z,16.70
2019-02-16T15:13:45.005Z,16.70
2019-02-16T15:16:13.319Z,16.70
2019-02-16T15:18:41.451Z,16.60
2019-02-16T15:21:09.630Z,16.60
2019-02-16T15:23:38.620Z,16.60
2019-02-16T15:26:06.975Z,16.50
2019-02-16T15:28:35.087Z,16.50
2019-02-16T15:31:03.815Z,16.40
2019-02-16T15:33:31.938Z,16.40
2019-02-16T15:36:00.209Z,16.40
2019-02-16T15:38:28.487Z,16.40
2019-02-16T15:40:56.678Z,16.40
2019-02-16T15:43:24.887Z,16.30
2019-02-16T15:45:53.166Z,16.30
2019-02-16T15:48:21.288Z,15.90
2019-02-16T15:50:49.395Z,16.20
2019-02-16T15:53:17.660Z,16.10
2019-02-16T15:55:45.858Z,16.10
2019-02-16T15:58:14.124Z,16.10
2019-02-16T16:00:50.291Z,16.00
2019-02-16T16:03:18.529Z,16.00
2019-02-16T16:05:46.638Z,15.90
2019-02-16T16:08:49.001Z,15.90
2019-02-16T16:11:39.481Z,15.80
2019-02-16T16:14:13.951Z,15.70
2019-02-16T16:16:59.891Z,15.70
2019-02-16T16:19:35.328Z,15.60
2019-02-16T16:22:28.601Z,15.50
2019-02-16T16:25:22.094Z,15.50
2019-02-16T16:28:15.935Z,15.40
2019-02-16T16:30:52.921Z,15.30
2019-02-16T16:33:39.165Z,15.20
2019-02-16T16:36:28.738Z,15.20
2019-02-16T16:39:11.969Z,15.10
2019-02-16T16:41:57.403Z,15.00
2019-02-16T16:44:47.774Z,15.00
2019-02-16T16:47:31.534Z,14.80
2019-02-16T16:50:34.015Z,14.80
2019-02-16T16:53:19.995Z,14.30
2019-02-16T16:56:13.846Z,14.50
2019-02-16T16:59:00.378Z,14.40
2019-02-16T17:01:56.974Z,14.30
2019-02-16T17:04:43.214Z,14.20
2019-02-16T17:07:36.784Z,14.10
2019-02-16T17:10:23.597Z,14.00
2019-02-16T17:13:20.402Z,13.90
2019-02-16T17:16:06.294Z,13.80
2019-02-16T17:18:40.155Z,13.70
2019-02-16T17:21:42.404Z,13.60
2019-02-16T17:24:32.896Z,13.40
2019-02-16T17:27:21.835Z,13.20
2019-02-16T17:29:57.262Z,13.10
2019-02-16T17:32:32.302Z,12.90
2019-02-16T17:35:13.857Z,12.80
2019-02-16T17:37:50.890Z,12.70
2019-02-16T17:40:30.861Z,12.50
2019-02-16T17:43:14.994Z,12.20
2019-02-16T17:46:08.245Z,12.00
2019-02-16T17:48:56.161Z,11.80
2019-02-16T17:51:40.560Z,11.60
2019-02-16T17:54:40.641Z,11.30
2019-02-16T17:57:28.414Z,11.10
2019-02-16T18:00:16.661Z,10.80
2019-02-16T18:03:13.625Z,10.50
2019-02-16T18:06:07.791Z,10.20
2019-02-16T18:08:54.603Z,10.00
2019-02-16T18:11:42.609Z,9.90
2019-02-16T18:14:41.875Z,9.90
2019-02-16T18:17:27.965Z,9.90
2019-02-16T18:20:13.654Z,9.60
2019-02-16T18:23:03.893Z,9.30
2019-02-16T18:25:37.987Z,9.20
2019-02-16T18:28:26.477Z,8.90
2019-02-16T18:31:26.112Z,8.90
2019-02-16T18:34:12.157Z,8.80
2019-02-16T18:36:58.130Z,8.60
2019-02-16T18:40:03.678Z,8.40
2019-02-16T18:43:09.495Z,8.20
2019-02-16T18:46:01.213Z,8.00
2019-02-16T18:48:44.283Z,7.90
2019-02-16T18:51:29.078Z,7.80
2019-02-16T18:54:22.410Z,7.90
2019-02-16T18:57:06.779Z,8.00
2019-02-16T18:59:50.819Z,8.00
2019-02-16T19:02:34.953Z,7.90
2019-02-16T19:05:22.638Z,7.90
2019-02-16T19:08:22.328Z,8.00
2019-02-16T19:11:10.289Z,7.90
2019-02-16T19:14:10.096Z,7.90
2019-02-16T19:16:49.246Z,7.50
2019-02-16T19:19:39.558Z,7.30
2019-02-16T19:22:46.045Z,7.10
2019-02-16T19:25:48.838Z,7.10
2019-02-16T19:28:38.987Z,7.10
2019-02-16T19:31:26.579Z,6.80
2019-02-16T19:34:16.998Z,6.80
2019-02-16T19:37:13.379Z,6.60
2019-02-16T19:40:00.859Z,6.50
2019-02-16T19:42:37.871Z,6.10
2019-02-16T19:45:24.377Z,6.30
2019-02-16T19:48:16.764Z,6.60
2019-02-16T19:51:06.790Z,6.70
2019-02-16T19:53:41.590Z,6.70
2019-02-16T19:56:22.314Z,6.70
2019-02-16T19:59:09.930Z,6.70
2019-02-16T20:01:55.641Z,6.60
2019-02-16T20:04:36.205Z,6.60
2019-02-16T20:07:29.680Z,6.50
2019-02-16T20:10:23.245Z,6.50
2019-02-16T20:13:09.456Z,6.40
2019-02-16T20:15:51.685Z,6.30
2019-02-16T20:18:44.858Z,6.10
2019-02-16T20:21:35.070Z,6.00
2019-02-16T20:24:22.691Z,5.90
2019-02-16T20:26:58.341Z,5.50
2019-02-16T20:29:45.951Z,5.90
2019-02-16T20:32:32.079Z,5.90
2019-02-16T20:35:07.290Z,5.90
2019-02-16T20:37:54.750Z,5.90
2019-02-16T20:40:36.409Z,5.90
2019-02-16T20:43:19.228Z,6.00
2019-02-16T20:46:12.559Z,6.00
2019-02-16T20:49:03.634Z,6.10
2019-02-16T20:51:49.832Z,6.10
2019-02-16T20:54:35.646Z,6.10
2019-02-16T20:57:25.186Z,6.30
2019-02-16T21:00:18.655Z,6.30
2019-02-16T21:02:58.147Z,6.30
2019-02-16T21:05:45.809Z,6.20
2019-02-16T21:08:26.546Z,6.20
2019-02-16T21:11:17.030Z,6.30
2019-02-16T21:13:55.050Z,6.20
2019-02-16T21:16:37.922Z,6.20
2019-02-16T21:19:31.336Z,6.10
2019-02-16T21:22:17.098Z,6.10
2019-02-16T21:25:13.560Z,6.10
2019-02-16T21:27:58.266Z,6.20
2019-02-16T21:30:53.778Z,6.10
2019-02-16T21:33:30.003Z,6.00
2019-02-16T21:36:13.956Z,5.90
2019-02-16T21:39:03.225Z,5.90
2019-02-16T21:41:47.394Z,5.90
2019-02-16T21:44:40.622Z,5.80
2019-02-16T21:47:26.696Z,5.70
2019-02-16T21:50:12.834Z,5.60
2019-02-16T21:52:56.415Z,5.50
2019-02-16T21:55:55.834Z,5.50
2019-02-16T21:58:41.971Z,5.50
2019-02-16T22:01:28.188Z,5.60
2019-02-16T22:04:28.827Z,5.30
2019-02-16T22:07:21.999Z,5.60
2019-02-16T22:10:12.154Z,5.50
2019-02-16T22:12:54.070Z,5.50
2019-02-16T22:15:22.228Z,5.50
2019-02-16T22:17:50.391Z,5.40
2019-02-16T22:20:18.540Z,5.50
2019-02-16T22:22:46.653Z,5.50
2019-02-16T22:25:15.027Z,5.40
2019-02-16T22:27:43.144Z,5.40
2019-02-16T22:30:11.529Z,5.40
2019-02-16T22:32:39.727Z,5.40
2019-02-16T22:35:08.126Z,5.40
2019-02-16T22:37:36.247Z,5.40
2019-02-16T22:40:04.791Z,5.30
2019-02-16T22:42:32.907Z,5.40
2019-02-16T22:45:01.137Z,5.40
2019-02-16T22:47:29.429Z,5.40
2019-02-16T22:49:57.539Z,5.30
2019-02-16T22:52:25.712Z,5.30
2019-02-16T22:54:53.873Z,5.30
2019-02-16T22:57:22.156Z,5.30
2019-02-16T22:59:50.274Z,5.20
2019-02-16T23:02:18.633Z,5.20
2019-02-16T23:04:46.995Z,5.20
2019-02-16T23:07:15.608Z,5.20
2019-02-16T23:09:43.805Z,5.10
2019-02-16T23:12:12.076Z,5.10
2019-02-16T23:14:40.286Z,5.10
2019-02-16T23:17:08.898Z,5.10
2019-02-16T23:19:37.989Z,5.10
2019-02-16T23:22:06.251Z,5.20
2019-02-16T23:24:34.571Z,5.10
2019-02-16T23:27:03.632Z,5.10
2019-02-16T23:29:32.138Z,5.20
2019-02-16T23:32:00.391Z,5.20
2019-02-16T23:34:29.056Z,5.20
2019-02-16T23:36:57.215Z,5.20
2019-02-16T23:39:25.433Z,5.20
2019-02-16T23:41:53.574Z,5.20
2019-02-16T23:44:21.770Z,5.30
2019-02-16T23:46:51.528Z,5.20
2019-02-16T23:49:19.999Z,5.20
2019-02-16T23:51:48.577Z,5.30
2019-02-16T23:54:16.697Z,5.30
2019-02-16T23:56:44.847Z,5.30
2019-02-16T23:59:13.051Z,5.20
